sensor_id;sensor_type;location;lat;lon;timestamp;temperature;humidity
7384;DHT22;3733;47.994;8.820;2022-08-25T00:00:18;16.80;99.90
7384;DHT22;3733;47.994;8.820;2022-08-25T00:02:44;16.80;99.90
7384;DHT22;3733;47.994;8.820;2022-08-25T00:05:10;16.80;99.90
7384;DHT22;3733;47.994;8.820;2022-08-25T00:07:36;16.70;99.90
7384;DHT22;3733;47.994;8.820;2022-08-25T00:10:03;16.70;99.90
7384;DHT22;3733;47.994;8.820;2022-08-25T00:12:28;16.70;99.90
7384;DHT22;3733;47.994;8.820;2022-08-25T00:14:54;16.70;99.90
7384;DHT22;3733;47.994;8.820;2022-08-25T00:17:20;16.70;99.90
7384;DHT22;3733;47.994;8.820;2022-08-25T00:19:45;16.70;99.90
7384;DHT22;3733;47.994;8.820;2022-08-25T00:22:11;16.70;99.90
7384;DHT22;3733;47.994;8.820;2022-08-25T00:24:36;16.70;99.90
7384;DHT22;3733;47.994;8.820;2022-08-25T00:27:02;16.60;99.90
7384;DHT22;3733;47.994;8.820;2022-08-25T00:29:29;16.60;99.90
7384;DHT22;3733;47.994;8.820;2022-08-25T00:31:55;16.60;99.90
7384;DHT22;3733;47.994;8.820;2022-08-25T00:34:26;16.60;99.90
7384;DHT22;3733;47.994;8.820;2022-08-25T00:36:53;16.50;99.90
7384;DHT22;3733;47.994;8.820;2022-08-25T00:39:21;16.50;99.90
7384;DHT22;3733;47.994;8.820;2022-08-25T00:41:48;16.40;99.90
7384;DHT22;3733;47.994;8.820;2022-08-25T00:44:15;16.40;99.90
7384;DHT22;3733;47.994;8.820;2022-08-25T00:46:47;16.30;99.90
7384;DHT22;3733;47.994;8.820;2022-08-25T00:49:35;16.30;99.90
7384;DHT22;3733;47.994;8.820;2022-08-25T00:52:12;16.30;99.90
7384;DHT22;3733;47.994;8.820;2022-08-25T00:54:52;16.20;99.90
7384;DHT22;3733;47.994;8.820;2022-08-25T00:57:25;16.20;99.90
7384;DHT22;3733;47.994;8.820;2022-08-25T00:59:52;16.20;99.90
7384;DHT22;3733;47.994;8.820;2022-08-25T01:02:17;16.20;99.90
7384;DHT22;3733;47.994;8.820;2022-08-25T01:04:44;16.20;99.90
7384;DHT22;3733;47.994;8.820;2022-08-25T01:07:10;16.20;99.90
7384;DHT22;3733;47.994;8.820;2022-08-25T01:09:37;16.10;99.90
7384;DHT22;3733;47.994;8.820;2022-08-25T01:12:03;16.10;99.90
7384;DHT22;3733;47.994;8.820;2022-08-25T01:14:30;16.00;99.90
7384;DHT22;3733;47.994;8.820;2022-08-25T01:16:57;16.10;99.90
7384;DHT22;3733;47.994;8.820;2022-08-25T01:19:24;16.10;99.90
7384;DHT22;3733;47.994;8.820;2022-08-25T01:21:52;16.10;99.90
7384;DHT22;3733;47.994;8.820;2022-08-25T01:24:48;16.10;99.90
7384;DHT22;3733;47.994;8.820;2022-08-25T01:27:17;16.10;99.90
7384;DHT22;3733;47.994;8.820;2022-08-25T01:29:42;16.10;99.90
7384;DHT22;3733;47.994;8.820;2022-08-25T01:32:11;16.10;99.90
7384;DHT22;3733;47.994;8.820;2022-08-25T01:34:39;16.10;99.90
7384;DHT22;3733;47.994;8.820;2022-08-25T01:37:06;16.00;99.90
7384;DHT22;3733;47.994;8.820;2022-08-25T01:39:34;16.00;99.90
7384;DHT22;3733;47.994;8.820;2022-08-25T01:45:08;16.00;99.90
7384;DHT22;3733;47.994;8.820;2022-08-25T01:47:35;16.00;99.90
7384;DHT22;3733;47.994;8.820;2022-08-25T01:50:03;15.90;99.90
7384;DHT22;3733;47.994;8.820;2022-08-25T01:52:46;16.00;99.90
7384;DHT22;3733;47.994;8.820;2022-08-25T01:55:14;15.90;99.90
7384;DHT22;3733;47.994;8.820;2022-08-25T01:57:39;15.90;99.90
7384;DHT22;3733;47.994;8.820;2022-08-25T02:00:08;15.80;99.90
7384;DHT22;3733;47.994;8.820;2022-08-25T02:02:34;15.80;99.90
7384;DHT22;3733;47.994;8.820;2022-08-25T02:05:00;15.80;99.90
7384;DHT22;3733;47.994;8.820;2022-08-25T02:07:26;15.80;99.90
7384;DHT22;3733;47.994;8.820;2022-08-25T02:09:51;15.80;99.90
7384;DHT22;3733;47.994;8.820;2022-08-25T02:12:17;15.80;99.90
7384;DHT22;3733;47.994;8.820;2022-08-25T02:14:42;15.70;99.90
7384;DHT22;3733;47.994;8.820;2022-08-25T02:17:08;15.70;99.90
7384;DHT22;3733;47.994;8.820;2022-08-25T02:19:34;15.70;99.90
7384;DHT22;3733;47.994;8.820;2022-08-25T02:22:00;15.80;99.90
7384;DHT22;3733;47.994;8.820;2022-08-25T02:24:26;15.70;99.90
7384;DHT22;3733;47.994;8.820;2022-08-25T02:26:52;15.80;99.90
7384;DHT22;3733;47.994;8.820;2022-08-25T02:29:18;15.70;99.90
7384;DHT22;3733;47.994;8.820;2022-08-25T02:31:43;15.70;99.90
7384;DHT22;3733;47.994;8.820;2022-08-25T02:34:10;15.60;99.90
7384;DHT22;3733;47.994;8.820;2022-08-25T02:36:37;15.60;99.90
7384;DHT22;3733;47.994;8.820;2022-08-25T02:39:05;15.60;99.90
7384;DHT22;3733;47.994;8.820;2022-08-25T02:41:31;15.60;99.90
7384;DHT22;3733;47.994;8.820;2022-08-25T02:43:59;15.60;99.90
7384;DHT22;3733;47.994;8.820;2022-08-25T02:46:25;15.50;99.90
7384;DHT22;3733;47.994;8.820;2022-08-25T02:48:51;15.50;99.90
7384;DHT22;3733;47.994;8.820;2022-08-25T02:51:18;15.40;99.90
7384;DHT22;3733;47.994;8.820;2022-08-25T02:53:44;15.40;99.90
7384;DHT22;3733;47.994;8.820;2022-08-25T02:56:12;15.40;99.90
7384;DHT22;3733;47.994;8.820;2022-08-25T02:58:39;15.40;99.90
7384;DHT22;3733;47.994;8.820;2022-08-25T03:01:06;15.40;99.90
7384;DHT22;3733;47.994;8.820;2022-08-25T03:03:32;15.30;99.90
7384;DHT22;3733;47.994;8.820;2022-08-25T03:05:58;15.30;99.90
7384;DHT22;3733;47.994;8.820;2022-08-25T03:08:24;15.30;99.90
7384;DHT22;3733;47.994;8.820;2022-08-25T03:10:50;15.30;99.90
7384;DHT22;3733;47.994;8.820;2022-08-25T03:13:16;15.30;99.90
7384;DHT22;3733;47.994;8.820;2022-08-25T03:15:43;15.20;99.90
7384;DHT22;3733;47.994;8.820;2022-08-25T03:18:10;15.20;99.90
7384;DHT22;3733;47.994;8.820;2022-08-25T03:20:37;15.20;99.90
7384;DHT22;3733;47.994;8.820;2022-08-25T03:23:03;15.10;99.90
7384;DHT22;3733;47.994;8.820;2022-08-25T03:25:29;15.10;99.90
7384;DHT22;3733;47.994;8.820;2022-08-25T03:28:14;15.10;99.90
7384;DHT22;3733;47.994;8.820;2022-08-25T03:30:40;15.10;99.90
7384;DHT22;3733;47.994;8.820;2022-08-25T03:33:06;15.10;99.90
7384;DHT22;3733;47.994;8.820;2022-08-25T03:35:32;15.00;99.90
7384;DHT22;3733;47.994;8.820;2022-08-25T03:37:59;15.00;99.90
7384;DHT22;3733;47.994;8.820;2022-08-25T03:40:25;15.00;99.90
7384;DHT22;3733;47.994;8.820;2022-08-25T03:42:51;15.00;99.90
7384;DHT22;3733;47.994;8.820;2022-08-25T03:45:19;15.00;99.90
7384;DHT22;3733;47.994;8.820;2022-08-25T03:47:49;14.90;99.90
7384;DHT22;3733;47.994;8.820;2022-08-25T03:50:16;14.90;99.90
7384;DHT22;3733;47.994;8.820;2022-08-25T03:52:42;14.90;99.90
7384;DHT22;3733;47.994;8.820;2022-08-25T03:55:11;14.90;99.90
7384;DHT22;3733;47.994;8.820;2022-08-25T03:57:37;14.90;99.90
7384;DHT22;3733;47.994;8.820;2022-08-25T04:00:05;15.00;99.90
7384;DHT22;3733;47.994;8.820;2022-08-25T04:02:32;15.00;99.90
7384;DHT22;3733;47.994;8.820;2022-08-25T04:04:58;15.00;99.90
7384;DHT22;3733;47.994;8.820;2022-08-25T04:07:23;15.00;99.90
7384;DHT22;3733;47.994;8.820;2022-08-25T04:09:49;15.00;99.90
7384;DHT22;3733;47.994;8.820;2022-08-25T04:12:15;15.00;99.90
7384;DHT22;3733;47.994;8.820;2022-08-25T04:14:40;15.00;99.90
7384;DHT22;3733;47.994;8.820;2022-08-25T04:17:07;15.00;99.90
7384;DHT22;3733;47.994;8.820;2022-08-25T04:19:33;15.00;99.90
7384;DHT22;3733;47.994;8.820;2022-08-25T04:21:58;14.90;99.90
7384;DHT22;3733;47.994;8.820;2022-08-25T04:24:24;14.90;99.90
7384;DHT22;3733;47.994;8.820;2022-08-25T04:26:50;14.90;99.90
7384;DHT22;3733;47.994;8.820;2022-08-25T04:29:19;14.90;99.90
7384;DHT22;3733;47.994;8.820;2022-08-25T04:31:46;14.80;99.90
7384;DHT22;3733;47.994;8.820;2022-08-25T04:34:18;14.80;99.90
7384;DHT22;3733;47.994;8.820;2022-08-25T04:36:44;14.80;99.90
7384;DHT22;3733;47.994;8.820;2022-08-25T04:39:10;14.70;99.90
7384;DHT22;3733;47.994;8.820;2022-08-25T04:41:36;14.70;99.90
7384;DHT22;3733;47.994;8.820;2022-08-25T04:44:02;14.70;99.90
7384;DHT22;3733;47.994;8.820;2022-08-25T04:46:31;14.70;99.90
7384;DHT22;3733;47.994;8.820;2022-08-25T04:48:58;14.70;99.90
7384;DHT22;3733;47.994;8.820;2022-08-25T04:51:30;14.70;99.90
7384;DHT22;3733;47.994;8.820;2022-08-25T04:53:58;14.70;99.90
7384;DHT22;3733;47.994;8.820;2022-08-25T04:56:26;14.60;99.90
7384;DHT22;3733;47.994;8.820;2022-08-25T04:58:53;14.60;99.90
7384;DHT22;3733;47.994;8.820;2022-08-25T05:01:23;14.60;99.90
7384;DHT22;3733;47.994;8.820;2022-08-25T05:03:55;14.60;99.90
7384;DHT22;3733;47.994;8.820;2022-08-25T05:06:22;14.60;99.90
7384;DHT22;3733;47.994;8.820;2022-08-25T05:08:48;14.60;99.90
7384;DHT22;3733;47.994;8.820;2022-08-25T05:11:16;14.60;99.90
7384;DHT22;3733;47.994;8.820;2022-08-25T05:13:47;14.70;99.90
7384;DHT22;3733;47.994;8.820;2022-08-25T05:16:13;14.70;99.90
7384;DHT22;3733;47.994;8.820;2022-08-25T05:18:39;14.80;99.90
7384;DHT22;3733;47.994;8.820;2022-08-25T05:21:08;14.80;99.90
7384;DHT22;3733;47.994;8.820;2022-08-25T05:23:35;14.90;99.90
7384;DHT22;3733;47.994;8.820;2022-08-25T05:26:13;14.90;99.90
7384;DHT22;3733;47.994;8.820;2022-08-25T05:28:39;15.00;99.90
7384;DHT22;3733;47.994;8.820;2022-08-25T05:31:07;15.00;99.90
7384;DHT22;3733;47.994;8.820;2022-08-25T05:33:34;15.10;99.90
7384;DHT22;3733;47.994;8.820;2022-08-25T05:36:00;15.10;99.90
7384;DHT22;3733;47.994;8.820;2022-08-25T05:38:26;15.20;99.90
7384;DHT22;3733;47.994;8.820;2022-08-25T05:41:00;15.30;99.90
7384;DHT22;3733;47.994;8.820;2022-08-25T05:43:26;15.40;99.90
7384;DHT22;3733;47.994;8.820;2022-08-25T05:45:54;15.40;99.90
7384;DHT22;3733;47.994;8.820;2022-08-25T05:48:20;15.50;99.90
7384;DHT22;3733;47.994;8.820;2022-08-25T05:51:02;15.50;99.90
7384;DHT22;3733;47.994;8.820;2022-08-25T05:53:29;15.60;99.90
7384;DHT22;3733;47.994;8.820;2022-08-25T05:55:56;15.70;99.90
7384;DHT22;3733;47.994;8.820;2022-08-25T05:58:23;15.80;99.90
7384;DHT22;3733;47.994;8.820;2022-08-25T06:00:50;15.80;99.90
7384;DHT22;3733;47.994;8.820;2022-08-25T06:03:16;15.90;99.90
7384;DHT22;3733;47.994;8.820;2022-08-25T06:05:42;15.90;99.90
7384;DHT22;3733;47.994;8.820;2022-08-25T06:08:08;16.00;99.90
7384;DHT22;3733;47.994;8.820;2022-08-25T06:10:35;16.10;99.90
7384;DHT22;3733;47.994;8.820;2022-08-25T06:13:02;16.10;99.90
7384;DHT22;3733;47.994;8.820;2022-08-25T06:15:28;16.20;99.90
7384;DHT22;3733;47.994;8.820;2022-08-25T06:17:54;16.20;99.90
7384;DHT22;3733;47.994;8.820;2022-08-25T06:20:25;16.30;99.90
7384;DHT22;3733;47.994;8.820;2022-08-25T06:22:51;16.40;99.90
7384;DHT22;3733;47.994;8.820;2022-08-25T06:25:20;16.50;99.90
7384;DHT22;3733;47.994;8.820;2022-08-25T06:27:46;16.60;99.90
7384;DHT22;3733;47.994;8.820;2022-08-25T06:30:14;16.70;99.90
7384;DHT22;3733;47.994;8.820;2022-08-25T06:32:42;16.80;99.90
7384;DHT22;3733;47.994;8.820;2022-08-25T06:35:12;16.90;99.90
7384;DHT22;3733;47.994;8.820;2022-08-25T06:37:38;16.90;99.90
7384;DHT22;3733;47.994;8.820;2022-08-25T06:40:06;16.90;99.90
7384;DHT22;3733;47.994;8.820;2022-08-25T06:42:32;17.00;99.90
7384;DHT22;3733;47.994;8.820;2022-08-25T06:44:58;17.00;99.90
7384;DHT22;3733;47.994;8.820;2022-08-25T06:47:24;17.10;99.90
7384;DHT22;3733;47.994;8.820;2022-08-25T06:49:49;17.20;99.90
7384;DHT22;3733;47.994;8.820;2022-08-25T06:52:15;17.30;99.90
7384;DHT22;3733;47.994;8.820;2022-08-25T06:54:41;17.40;99.90
7384;DHT22;3733;47.994;8.820;2022-08-25T06:57:07;17.60;99.90
7384;DHT22;3733;47.994;8.820;2022-08-25T06:59:34;17.70;99.90
7384;DHT22;3733;47.994;8.820;2022-08-25T07:02:00;17.80;99.90
7384;DHT22;3733;47.994;8.820;2022-08-25T07:04:26;17.90;99.90
7384;DHT22;3733;47.994;8.820;2022-08-25T07:06:51;18.10;99.90
7384;DHT22;3733;47.994;8.820;2022-08-25T07:09:17;18.20;99.90
7384;DHT22;3733;47.994;8.820;2022-08-25T07:11:44;18.40;99.90
7384;DHT22;3733;47.994;8.820;2022-08-25T07:14:11;18.60;99.90
7384;DHT22;3733;47.994;8.820;2022-08-25T07:16:39;18.70;99.90
7384;DHT22;3733;47.994;8.820;2022-08-25T07:19:05;18.80;99.90
7384;DHT22;3733;47.994;8.820;2022-08-25T07:21:32;19.00;99.90
7384;DHT22;3733;47.994;8.820;2022-08-25T07:23:58;19.10;99.90
7384;DHT22;3733;47.994;8.820;2022-08-25T07:26:28;19.10;99.90
7384;DHT22;3733;47.994;8.820;2022-08-25T07:28:56;19.20;99.90
7384;DHT22;3733;47.994;8.820;2022-08-25T07:31:22;19.40;99.90
7384;DHT22;3733;47.994;8.820;2022-08-25T07:33:48;19.40;99.90
7384;DHT22;3733;47.994;8.820;2022-08-25T07:36:33;19.50;99.90
7384;DHT22;3733;47.994;8.820;2022-08-25T07:38:58;19.60;99.90
7384;DHT22;3733;47.994;8.820;2022-08-25T07:41:25;19.60;99.90
7384;DHT22;3733;47.994;8.820;2022-08-25T07:43:51;19.80;99.90
7384;DHT22;3733;47.994;8.820;2022-08-25T07:46:17;19.80;99.90
7384;DHT22;3733;47.994;8.820;2022-08-25T07:48:43;19.90;99.90
7384;DHT22;3733;47.994;8.820;2022-08-25T07:51:10;20.00;99.90
7384;DHT22;3733;47.994;8.820;2022-08-25T07:53:37;20.00;99.90
7384;DHT22;3733;47.994;8.820;2022-08-25T07:56:12;20.00;99.90
7384;DHT22;3733;47.994;8.820;2022-08-25T07:58:39;20.10;99.90
7384;DHT22;3733;47.994;8.820;2022-08-25T08:01:05;20.20;99.90
7384;DHT22;3733;47.994;8.820;2022-08-25T08:03:31;20.30;99.90
7384;DHT22;3733;47.994;8.820;2022-08-25T08:05:59;20.40;99.90
7384;DHT22;3733;47.994;8.820;2022-08-25T08:08:26;20.50;99.30
7384;DHT22;3733;47.994;8.820;2022-08-25T08:10:52;20.50;99.10
7384;DHT22;3733;47.994;8.820;2022-08-25T08:13:17;20.60;99.50
7384;DHT22;3733;47.994;8.820;2022-08-25T08:15:44;20.70;98.10
7384;DHT22;3733;47.994;8.820;2022-08-25T08:18:09;20.80;97.60
7384;DHT22;3733;47.994;8.820;2022-08-25T08:20:35;20.90;96.80
7384;DHT22;3733;47.994;8.820;2022-08-25T08:23:01;20.90;95.40
7384;DHT22;3733;47.994;8.820;2022-08-25T08:25:27;21.00;96.10
7384;DHT22;3733;47.994;8.820;2022-08-25T08:27:53;21.10;96.80
7384;DHT22;3733;47.994;8.820;2022-08-25T08:30:19;21.20;97.10
7384;DHT22;3733;47.994;8.820;2022-08-25T08:32:46;21.30;94.00
7384;DHT22;3733;47.994;8.820;2022-08-25T08:35:16;21.40;93.90
7384;DHT22;3733;47.994;8.820;2022-08-25T08:37:44;21.40;91.80
7384;DHT22;3733;47.994;8.820;2022-08-25T08:40:13;21.50;91.40
7384;DHT22;3733;47.994;8.820;2022-08-25T08:45:48;21.60;92.50
7384;DHT22;3733;47.994;8.820;2022-08-25T08:51:15;21.80;90.50
7384;DHT22;3733;47.994;8.820;2022-08-25T08:56:23;22.10;86.50
7384;DHT22;3733;47.994;8.820;2022-08-25T08:59:05;22.10;83.40
7384;DHT22;3733;47.994;8.820;2022-08-25T09:01:42;22.30;79.00
7384;DHT22;3733;47.994;8.820;2022-08-25T09:06:43;22.50;79.80
7384;DHT22;3733;47.994;8.820;2022-08-25T09:09:28;22.60;77.70
7384;DHT22;3733;47.994;8.820;2022-08-25T09:14:36;22.80;74.90
7384;DHT22;3733;47.994;8.820;2022-08-25T09:25:22;23.20;72.90
7384;DHT22;3733;47.994;8.820;2022-08-25T09:30:20;23.50;74.50
7384;DHT22;3733;47.994;8.820;2022-08-25T09:32:52;23.50;70.00
7384;DHT22;3733;47.994;8.820;2022-08-25T09:35:27;23.60;68.10
7384;DHT22;3733;47.994;8.820;2022-08-25T09:40:27;23.80;68.90
7384;DHT22;3733;47.994;8.820;2022-08-25T09:42:56;23.90;69.20
7384;DHT22;3733;47.994;8.820;2022-08-25T09:45:33;24.00;65.80
7384;DHT22;3733;47.994;8.820;2022-08-25T09:47:59;24.10;63.70
7384;DHT22;3733;47.994;8.820;2022-08-25T09:50:30;24.10;64.10
7384;DHT22;3733;47.994;8.820;2022-08-25T09:53:11;24.30;65.00
7384;DHT22;3733;47.994;8.820;2022-08-25T09:55:40;24.30;62.40
7384;DHT22;3733;47.994;8.820;2022-08-25T09:58:19;24.40;62.50
7384;DHT22;3733;47.994;8.820;2022-08-25T10:01:02;24.50;62.30
7384;DHT22;3733;47.994;8.820;2022-08-25T10:03:28;24.60;61.50
7384;DHT22;3733;47.994;8.820;2022-08-25T10:08:30;24.70;62.10
7384;DHT22;3733;47.994;8.820;2022-08-25T10:10:59;24.80;62.60
7384;DHT22;3733;47.994;8.820;2022-08-25T10:13:46;24.90;62.40
7384;DHT22;3733;47.994;8.820;2022-08-25T10:16:28;25.00;61.30
7384;DHT22;3733;47.994;8.820;2022-08-25T10:19:26;25.10;62.20
7384;DHT22;3733;47.994;8.820;2022-08-25T10:22:23;25.20;61.30
7384;DHT22;3733;47.994;8.820;2022-08-25T10:24:51;25.40;61.30
7384;DHT22;3733;47.994;8.820;2022-08-25T10:27:38;25.50;61.30
7384;DHT22;3733;47.994;8.820;2022-08-25T10:30:23;25.60;60.30
7384;DHT22;3733;47.994;8.820;2022-08-25T10:36:07;25.60;59.70
7384;DHT22;3733;47.994;8.820;2022-08-25T10:38:43;25.60;59.10
7384;DHT22;3733;47.994;8.820;2022-08-25T10:44:03;25.70;59.00
7384;DHT22;3733;47.994;8.820;2022-08-25T10:46:52;25.90;58.50
7384;DHT22;3733;47.994;8.820;2022-08-25T10:49:27;26.00;59.00
7384;DHT22;3733;47.994;8.820;2022-08-25T10:55:04;26.30;57.50
7384;DHT22;3733;47.994;8.820;2022-08-25T10:57:54;26.30;58.10
7384;DHT22;3733;47.994;8.820;2022-08-25T11:00:22;26.50;58.00
7384;DHT22;3733;47.994;8.820;2022-08-25T11:05:52;26.60;56.40
7384;DHT22;3733;47.994;8.820;2022-08-25T11:08:36;26.60;57.10
7384;DHT22;3733;47.994;8.820;2022-08-25T11:14:18;26.80;56.70
7384;DHT22;3733;47.994;8.820;2022-08-25T11:22:40;27.10;54.90
7384;DHT22;3733;47.994;8.820;2022-08-25T11:25:30;27.10;55.10
7384;DHT22;3733;47.994;8.820;2022-08-25T11:28:05;27.20;55.70
7384;DHT22;3733;47.994;8.820;2022-08-25T11:30:32;27.30;54.90
7384;DHT22;3733;47.994;8.820;2022-08-25T11:32:58;27.50;53.90
7384;DHT22;3733;47.994;8.820;2022-08-25T11:35:40;27.50;53.40
7384;DHT22;3733;47.994;8.820;2022-08-25T11:49:57;28.30;51.80
7384;DHT22;3733;47.994;8.820;2022-08-25T11:55:44;28.40;49.30
7384;DHT22;3733;47.994;8.820;2022-08-25T12:00:55;28.70;49.80
7384;DHT22;3733;47.994;8.820;2022-08-25T12:14:35;29.30;46.60
7384;DHT22;3733;47.994;8.820;2022-08-25T12:17:19;29.40;46.60
7384;DHT22;3733;47.994;8.820;2022-08-25T12:19:47;29.60;45.50
7384;DHT22;3733;47.994;8.820;2022-08-25T12:24:52;29.70;44.50
7384;DHT22;3733;47.994;8.820;2022-08-25T12:27:32;29.70;43.80
7384;DHT22;3733;47.994;8.820;2022-08-25T12:30:32;29.80;45.80
7384;DHT22;3733;47.994;8.820;2022-08-25T12:33:07;30.00;45.00
7384;DHT22;3733;47.994;8.820;2022-08-25T12:38:37;30.20;43.80
7384;DHT22;3733;47.994;8.820;2022-08-25T12:41:11;30.40;43.80
7384;DHT22;3733;47.994;8.820;2022-08-25T12:43:48;30.50;43.10
7384;DHT22;3733;47.994;8.820;2022-08-25T12:51:23;30.90;41.70
7384;DHT22;3733;47.994;8.820;2022-08-25T12:56:50;31.10;43.90
7384;DHT22;3733;47.994;8.820;2022-08-25T12:59:35;31.30;42.70
7384;DHT22;3733;47.994;8.820;2022-08-25T13:05:00;31.40;41.00
7384;DHT22;3733;47.994;8.820;2022-08-25T13:12:59;31.60;41.10
7384;DHT22;3733;47.994;8.820;2022-08-25T13:15:28;31.90;41.70
7384;DHT22;3733;47.994;8.820;2022-08-25T13:18:19;32.00;41.60
7384;DHT22;3733;47.994;8.820;2022-08-25T13:21:01;32.10;41.80
7384;DHT22;3733;47.994;8.820;2022-08-25T13:23:28;32.20;41.70
7384;DHT22;3733;47.994;8.820;2022-08-25T13:25:55;32.20;41.40
7384;DHT22;3733;47.994;8.820;2022-08-25T13:28:30;32.10;40.00
7384;DHT22;3733;47.994;8.820;2022-08-25T13:31:03;32.10;40.30
7384;DHT22;3733;47.994;8.820;2022-08-25T13:33:29;32.30;41.20
7384;DHT22;3733;47.994;8.820;2022-08-25T13:35:57;32.50;41.30
7384;DHT22;3733;47.994;8.820;2022-08-25T13:38:43;32.60;40.20
7384;DHT22;3733;47.994;8.820;2022-08-25T13:41:09;32.40;40.50
7384;DHT22;3733;47.994;8.820;2022-08-25T13:43:36;32.50;41.40
7384;DHT22;3733;47.994;8.820;2022-08-25T13:46:03;32.70;41.20
7384;DHT22;3733;47.994;8.820;2022-08-25T13:51:06;33.10;40.10
7384;DHT22;3733;47.994;8.820;2022-08-25T13:53:33;33.30;40.60
7384;DHT22;3733;47.994;8.820;2022-08-25T13:56:01;33.40;40.60
7384;DHT22;3733;47.994;8.820;2022-08-25T13:58:33;33.60;40.60
7384;DHT22;3733;47.994;8.820;2022-08-25T14:01:06;33.70;40.20
7384;DHT22;3733;47.994;8.820;2022-08-25T14:03:42;33.80;39.40
7384;DHT22;3733;47.994;8.820;2022-08-25T14:08:42;34.00;39.70
7384;DHT22;3733;47.994;8.820;2022-08-25T14:11:23;34.10;38.60
7384;DHT22;3733;47.994;8.820;2022-08-25T14:14:11;34.20;38.50
7384;DHT22;3733;47.994;8.820;2022-08-25T14:16:59;34.30;38.40
7384;DHT22;3733;47.994;8.820;2022-08-25T14:19:25;34.40;38.50
7384;DHT22;3733;47.994;8.820;2022-08-25T14:21:51;34.40;38.20
7384;DHT22;3733;47.994;8.820;2022-08-25T14:24:19;34.50;38.60
7384;DHT22;3733;47.994;8.820;2022-08-25T14:26:46;34.60;37.20
7384;DHT22;3733;47.994;8.820;2022-08-25T14:29:12;34.50;37.40
7384;DHT22;3733;47.994;8.820;2022-08-25T14:31:40;34.50;36.90
7384;DHT22;3733;47.994;8.820;2022-08-25T14:34:22;34.50;37.80
7384;DHT22;3733;47.994;8.820;2022-08-25T14:36:49;34.60;37.60
7384;DHT22;3733;47.994;8.820;2022-08-25T14:39:16;34.60;37.30
7384;DHT22;3733;47.994;8.820;2022-08-25T14:41:42;34.60;36.80
7384;DHT22;3733;47.994;8.820;2022-08-25T14:44:11;34.60;36.10
7384;DHT22;3733;47.994;8.820;2022-08-25T14:46:43;34.60;37.00
7384;DHT22;3733;47.994;8.820;2022-08-25T14:49:14;34.50;37.30
7384;DHT22;3733;47.994;8.820;2022-08-25T14:51:41;34.60;38.10
7384;DHT22;3733;47.994;8.820;2022-08-25T14:54:10;34.60;35.80
7384;DHT22;3733;47.994;8.820;2022-08-25T14:56:38;34.60;36.60
7384;DHT22;3733;47.994;8.820;2022-08-25T14:59:04;34.70;37.20
7384;DHT22;3733;47.994;8.820;2022-08-25T15:01:30;34.70;36.50
7384;DHT22;3733;47.994;8.820;2022-08-25T15:04:06;34.60;35.90
7384;DHT22;3733;47.994;8.820;2022-08-25T15:06:34;34.60;37.60
7384;DHT22;3733;47.994;8.820;2022-08-25T15:09:00;34.60;36.00
7384;DHT22;3733;47.994;8.820;2022-08-25T15:11:33;34.40;36.80
7384;DHT22;3733;47.994;8.820;2022-08-25T15:13:59;34.40;37.70
7384;DHT22;3733;47.994;8.820;2022-08-25T15:16:38;34.60;39.10
7384;DHT22;3733;47.994;8.820;2022-08-25T15:19:06;34.70;38.70
7384;DHT22;3733;47.994;8.820;2022-08-25T15:21:32;34.80;38.30
7384;DHT22;3733;47.994;8.820;2022-08-25T15:23:58;34.80;37.80
7384;DHT22;3733;47.994;8.820;2022-08-25T15:26:24;34.80;38.20
7384;DHT22;3733;47.994;8.820;2022-08-25T15:28:50;34.80;38.50
7384;DHT22;3733;47.994;8.820;2022-08-25T15:31:18;34.80;38.60
7384;DHT22;3733;47.994;8.820;2022-08-25T15:33:45;34.70;37.70
7384;DHT22;3733;47.994;8.820;2022-08-25T15:36:13;34.70;38.50
7384;DHT22;3733;47.994;8.820;2022-08-25T15:38:42;34.60;37.70
7384;DHT22;3733;47.994;8.820;2022-08-25T15:41:08;34.50;38.50
7384;DHT22;3733;47.994;8.820;2022-08-25T15:43:34;34.40;37.70
7384;DHT22;3733;47.994;8.820;2022-08-25T15:46:00;34.20;38.10
7384;DHT22;3733;47.994;8.820;2022-08-25T15:48:26;34.00;38.50
7384;DHT22;3733;47.994;8.820;2022-08-25T15:50:55;33.90;38.50
7384;DHT22;3733;47.994;8.820;2022-08-25T15:53:23;33.70;38.60
7384;DHT22;3733;47.994;8.820;2022-08-25T15:55:51;33.60;38.50
7384;DHT22;3733;47.994;8.820;2022-08-25T15:58:17;33.40;39.20
7384;DHT22;3733;47.994;8.820;2022-08-25T16:00:44;33.20;38.90
7384;DHT22;3733;47.994;8.820;2022-08-25T16:03:10;32.90;40.30
7384;DHT22;3733;47.994;8.820;2022-08-25T16:05:37;32.50;41.30
7384;DHT22;3733;47.994;8.820;2022-08-25T16:08:04;31.90;41.60
7384;DHT22;3733;47.994;8.820;2022-08-25T16:10:34;31.30;41.70
7384;DHT22;3733;47.994;8.820;2022-08-25T16:13:00;30.60;42.40
7384;DHT22;3733;47.994;8.820;2022-08-25T16:15:27;30.10;43.20
7384;DHT22;3733;47.994;8.820;2022-08-25T16:17:53;29.70;44.50
7384;DHT22;3733;47.994;8.820;2022-08-25T16:20:19;29.30;45.10
7384;DHT22;3733;47.994;8.820;2022-08-25T16:22:46;29.10;45.50
7384;DHT22;3733;47.994;8.820;2022-08-25T16:25:12;28.90;46.10
7384;DHT22;3733;47.994;8.820;2022-08-25T16:27:38;28.70;46.40
7384;DHT22;3733;47.994;8.820;2022-08-25T16:30:05;28.50;46.00
7384;DHT22;3733;47.994;8.820;2022-08-25T16:32:33;28.30;46.80
7384;DHT22;3733;47.994;8.820;2022-08-25T16:34:58;28.20;47.40
7384;DHT22;3733;47.994;8.820;2022-08-25T16:37:24;28.10;47.20
7384;DHT22;3733;47.994;8.820;2022-08-25T16:39:53;28.00;47.20
7384;DHT22;3733;47.994;8.820;2022-08-25T16:42:19;27.90;47.70
7384;DHT22;3733;47.994;8.820;2022-08-25T16:44:45;27.80;47.10
7384;DHT22;3733;47.994;8.820;2022-08-25T16:47:11;27.70;47.70
7384;DHT22;3733;47.994;8.820;2022-08-25T16:49:39;27.60;48.10
7384;DHT22;3733;47.994;8.820;2022-08-25T16:52:05;27.50;48.80
7384;DHT22;3733;47.994;8.820;2022-08-25T16:54:51;27.40;49.00
7384;DHT22;3733;47.994;8.820;2022-08-25T16:57:36;27.30;49.00
7384;DHT22;3733;47.994;8.820;2022-08-25T17:00:04;27.20;49.70
7384;DHT22;3733;47.994;8.820;2022-08-25T17:02:30;27.20;49.10
7384;DHT22;3733;47.994;8.820;2022-08-25T17:04:55;27.00;49.00
7384;DHT22;3733;47.994;8.820;2022-08-25T17:07:21;27.00;49.50
7384;DHT22;3733;47.994;8.820;2022-08-25T17:09:47;26.90;49.60
7384;DHT22;3733;47.994;8.820;2022-08-25T17:12:12;26.80;50.20
7384;DHT22;3733;47.994;8.820;2022-08-25T17:14:38;26.80;49.80
7384;DHT22;3733;47.994;8.820;2022-08-25T17:17:04;26.70;50.30
7384;DHT22;3733;47.994;8.820;2022-08-25T17:19:29;26.70;50.80
7384;DHT22;3733;47.994;8.820;2022-08-25T17:21:55;26.60;50.80
7384;DHT22;3733;47.994;8.820;2022-08-25T17:24:23;26.50;51.00
7384;DHT22;3733;47.994;8.820;2022-08-25T17:26:49;26.40;51.30
7384;DHT22;3733;47.994;8.820;2022-08-25T17:29:16;26.40;51.80
7384;DHT22;3733;47.994;8.820;2022-08-25T17:31:42;26.30;51.30
7384;DHT22;3733;47.994;8.820;2022-08-25T17:34:12;26.30;51.20
7384;DHT22;3733;47.994;8.820;2022-08-25T17:36:39;26.20;51.60
7384;DHT22;3733;47.994;8.820;2022-08-25T17:39:07;26.10;52.10
7384;DHT22;3733;47.994;8.820;2022-08-25T17:41:33;26.10;52.20
7384;DHT22;3733;47.994;8.820;2022-08-25T17:43:59;26.00;52.50
7384;DHT22;3733;47.994;8.820;2022-08-25T17:46:25;26.00;53.60
7384;DHT22;3733;47.994;8.820;2022-08-25T17:48:52;25.90;53.70
7384;DHT22;3733;47.994;8.820;2022-08-25T17:51:19;25.80;53.80
7384;DHT22;3733;47.994;8.820;2022-08-25T17:53:45;25.70;54.20
7384;DHT22;3733;47.994;8.820;2022-08-25T17:56:14;25.60;54.70
7384;DHT22;3733;47.994;8.820;2022-08-25T17:58:40;25.40;55.20
7384;DHT22;3733;47.994;8.820;2022-08-25T18:01:13;25.30;55.80
7384;DHT22;3733;47.994;8.820;2022-08-25T18:03:39;25.10;56.20